createdAt,value
2018-09-24T00:02:17.952Z,1.80
2018-09-24T00:04:46.168Z,2.07
2018-09-24T00:07:14.420Z,1.70
2018-09-24T00:09:42.693Z,1.73
2018-09-24T00:12:10.893Z,1.50
2018-09-24T00:14:39.118Z,1.80
2018-09-24T00:17:07.303Z,1.97
2018-09-24T00:19:35.562Z,2.40
2018-09-24T00:22:03.902Z,2.83
2018-09-24T00:24:32.136Z,1.93
2018-09-24T00:27:00.328Z,18.73
2018-09-24T00:29:28.604Z,157.17
2018-09-24T00:31:56.856Z,9.13
2018-09-24T00:34:25.111Z,21.10
2018-09-24T00:36:53.328Z,63.00
2018-09-24T00:39:21.560Z,36.20
2018-09-24T00:41:49.787Z,64.90
2018-09-24T00:44:18.029Z,28.37
2018-09-24T00:46:46.244Z,11.90
2018-09-24T00:49:14.512Z,59.53
2018-09-24T00:51:42.700Z,15.70
2018-09-24T00:54:10.950Z,29.93
2018-09-24T00:56:39.161Z,16.97
2018-09-24T00:59:07.375Z,7.13
2018-09-24T01:01:35.607Z,6.10
2018-09-24T01:04:05.067Z,12.97
2018-09-24T01:06:33.809Z,3.40
2018-09-24T01:09:04.623Z,13.53
2018-09-24T01:11:34.900Z,105.33
2018-09-24T01:14:03.102Z,6.83
2018-09-24T01:16:31.318Z,4.90
2018-09-24T01:18:59.618Z,3.33
2018-09-24T01:21:28.317Z,11.33
2018-09-24T01:23:56.579Z,5.13
2018-09-24T01:26:24.779Z,2.97
2018-09-24T01:28:53.032Z,4.30
2018-09-24T01:31:21.304Z,3.37
2018-09-24T01:33:49.507Z,10.53
2018-09-24T01:36:17.848Z,19.87
2018-09-24T01:38:46.055Z,3.43
2018-09-24T01:41:14.523Z,2.97
2018-09-24T01:43:45.816Z,2.60
2018-09-24T01:46:14.076Z,2.07
2018-09-24T01:48:42.280Z,1.90
2018-09-24T01:51:10.533Z,2.20
2018-09-24T01:53:38.860Z,1.87
2018-09-24T01:56:07.080Z,3.90
2018-09-24T01:58:37.928Z,4.00
2018-09-24T02:01:06.628Z,9.00
2018-09-24T02:03:35.501Z,2.50
2018-09-24T02:06:04.509Z,7.20
2018-09-24T02:08:33.161Z,3.43
2018-09-24T02:11:01.379Z,2.00
2018-09-24T02:13:29.573Z,1.87
2018-09-24T02:15:57.779Z,2.00
2018-09-24T02:18:25.971Z,2.40
2018-09-24T02:20:54.174Z,2.10
2018-09-24T02:23:30.838Z,10.97
2018-09-24T02:26:02.125Z,4.80
2018-09-24T02:28:32.564Z,8.90
2018-09-24T02:31:00.787Z,4.60
2018-09-24T02:33:29.332Z,4.47
2018-09-24T02:36:00.682Z,2.93
2018-09-24T02:38:29.359Z,2.17
2018-09-24T02:41:00.602Z,1.80
2018-09-24T02:43:32.208Z,2.53
2018-09-24T02:46:01.614Z,2.60
2018-09-24T02:48:29.982Z,2.57
2018-09-24T02:51:01.064Z,1.90
2018-09-24T02:53:34.232Z,1.93
2018-09-24T02:56:02.831Z,2.57
2018-09-24T02:58:32.487Z,2.60
2018-09-24T03:01:00.705Z,10.33
2018-09-24T03:03:28.988Z,28.37
2018-09-24T03:05:57.670Z,9.83
2018-09-24T03:08:26.168Z,38.37
2018-09-24T03:10:54.371Z,4.70
2018-09-24T03:13:22.735Z,5.60
2018-09-24T03:15:51.348Z,13.40
2018-09-24T03:18:19.774Z,3.60
2018-09-24T03:20:48.209Z,3.07
2018-09-24T03:23:16.793Z,44.20
2018-09-24T03:25:45.432Z,35.23
2018-09-24T03:28:13.910Z,4.53
2018-09-24T03:30:42.921Z,3.13
2018-09-24T03:33:11.225Z,3.20
2018-09-24T03:35:39.910Z,3.17
2018-09-24T03:38:08.398Z,2.90
2018-09-24T03:40:37.671Z,2.80
2018-09-24T03:43:06.928Z,2.50
2018-09-24T03:45:38.805Z,3.43
2018-09-24T03:48:15.865Z,7.23
2018-09-24T03:50:44.585Z,3.47
2018-09-24T03:53:15.837Z,4.07
2018-09-24T03:55:44.150Z,4.03
2018-09-24T03:58:12.810Z,6.37
2018-09-24T04:00:46.293Z,3.90
2018-09-24T04:03:14.535Z,12.10
2018-09-24T04:05:48.710Z,4.23
2018-09-24T04:08:22.714Z,3.30
2018-09-24T04:10:56.323Z,3.33
2018-09-24T04:13:30.016Z,4.17
2018-09-24T04:16:04.044Z,3.57
2018-09-24T04:18:37.752Z,3.40
2018-09-24T04:21:11.927Z,3.53
2018-09-24T04:23:45.652Z,4.00
2018-09-24T04:26:19.534Z,3.27
2018-09-24T04:28:53.403Z,4.23
2018-09-24T04:31:27.386Z,2.90
2018-09-24T04:34:01.026Z,4.00
2018-09-24T04:36:35.117Z,57.97
2018-09-24T04:39:08.872Z,5.40
2018-09-24T04:41:42.571Z,15.20
2018-09-24T04:44:16.570Z,5.30
2018-09-24T04:46:50.140Z,11.93
2018-09-24T04:49:24.069Z,7.10
2018-09-24T04:51:57.589Z,4.10
2018-09-24T04:54:31.236Z,3.57
2018-09-24T04:57:05.077Z,3.23
2018-09-24T04:59:41.511Z,2.90
2018-09-24T05:02:15.216Z,3.47
2018-09-24T05:04:48.804Z,4.43
2018-09-24T05:07:22.637Z,3.43
2018-09-24T05:09:56.325Z,4.30
2018-09-24T05:12:29.874Z,5.23
2018-09-24T05:15:05.698Z,5.90
2018-09-24T05:17:43.248Z,5.13
2018-09-24T05:20:17.047Z,2.77
2018-09-24T05:22:51.179Z,4.43
2018-09-24T05:25:30.499Z,4.07
2018-09-24T05:28:06.490Z,4.80
2018-09-24T05:30:40.281Z,3.90
2018-09-24T05:33:14.002Z,4.37
2018-09-24T05:35:50.245Z,5.47
2018-09-24T05:38:26.839Z,4.73
2018-09-24T05:41:00.851Z,5.13
2018-09-24T05:43:36.236Z,3.73
2018-09-24T05:46:09.813Z,4.03
2018-09-24T05:48:45.554Z,4.00
2018-09-24T05:51:19.997Z,4.10
2018-09-24T05:53:53.917Z,3.83
2018-09-24T05:56:34.539Z,3.90
2018-09-24T05:59:08.103Z,4.23
2018-09-24T06:01:41.749Z,4.60
2018-09-24T06:04:15.428Z,3.83
2018-09-24T06:06:48.949Z,4.00
2018-09-24T06:09:22.634Z,3.70
2018-09-24T06:11:56.381Z,3.57
2018-09-24T06:14:29.856Z,4.30
2018-09-24T06:17:03.594Z,4.70
2018-09-24T06:19:37.241Z,4.27
2018-09-24T06:22:10.966Z,4.50
2018-09-24T06:24:44.718Z,4.33
2018-09-24T06:27:18.486Z,4.23
2018-09-24T06:29:52.158Z,5.53
2018-09-24T06:32:26.083Z,4.70
2018-09-24T06:34:59.595Z,3.90
2018-09-24T06:37:33.116Z,4.57
2018-09-24T06:40:06.770Z,5.07
2018-09-24T06:42:40.400Z,4.63
2018-09-24T06:45:14.089Z,4.50
2018-09-24T06:47:47.869Z,4.43
2018-09-24T06:50:21.448Z,4.37
2018-09-24T06:52:55.171Z,4.40
2018-09-24T06:55:28.920Z,4.00
2018-09-24T06:58:02.486Z,5.23
2018-09-24T07:00:36.029Z,4.40
2018-09-24T07:03:09.700Z,4.50
2018-09-24T07:05:43.557Z,4.50
2018-09-24T07:08:17.276Z,3.73
2018-09-24T07:10:50.764Z,4.67
2018-09-24T07:13:24.210Z,4.00
2018-09-24T07:15:57.753Z,4.07
2018-09-24T07:18:31.148Z,4.73
2018-09-24T07:21:04.608Z,3.47
2018-09-24T07:23:38.377Z,3.30
2018-09-24T07:26:12.080Z,3.80
2018-09-24T07:28:45.858Z,3.30
2018-09-24T07:31:19.566Z,3.80
2018-09-24T07:33:53.220Z,3.70
2018-09-24T07:36:26.740Z,3.30
2018-09-24T07:39:01.444Z,3.53
2018-09-24T07:41:35.189Z,3.40
2018-09-24T07:44:08.910Z,3.30
2018-09-24T07:46:42.899Z,3.70
2018-09-24T07:49:16.451Z,3.10
2018-09-24T07:51:50.270Z,3.80
2018-09-24T07:54:23.785Z,3.30
2018-09-24T07:56:57.488Z,38.10
2018-09-24T07:59:31.173Z,20.77
2018-09-24T08:02:04.871Z,57.87
2018-09-24T08:04:38.306Z,58.97
2018-09-24T08:07:11.969Z,87.47
2018-09-24T08:09:45.564Z,22.47
2018-09-24T08:12:19.096Z,18.80
2018-09-24T08:14:52.850Z,14.77
2018-09-24T08:17:26.561Z,15.40
2018-09-24T08:20:00.421Z,8.83
2018-09-24T08:22:33.986Z,16.63
2018-09-24T08:25:07.669Z,15.27
2018-09-24T08:27:41.481Z,15.83
2018-09-24T08:30:15.252Z,20.07
2018-09-24T08:32:49.013Z,63.27
2018-09-24T08:35:22.669Z,13.53
2018-09-24T08:37:56.385Z,20.93
2018-09-24T08:40:30.350Z,12.10
2018-09-24T08:43:04.108Z,10.10
2018-09-24T08:45:37.791Z,12.07
2018-09-24T08:48:12.862Z,16.80
2018-09-24T08:50:46.469Z,6.93
2018-09-24T08:53:20.130Z,3.30
2018-09-24T08:55:54.234Z,1.77
2018-09-24T08:58:27.992Z,1.90
2018-09-24T09:01:01.742Z,1.70
2018-09-24T09:03:35.509Z,1.50
2018-09-24T09:06:09.132Z,1.63
2018-09-24T09:08:44.032Z,1.33
2018-09-24T09:11:24.759Z,1.97
2018-09-24T09:13:58.740Z,1.33
2018-09-24T09:16:32.454Z,1.47
2018-09-24T09:19:06.045Z,1.77
2018-09-24T09:21:39.602Z,1.60
2018-09-24T09:24:13.270Z,1.50
2018-09-24T09:26:46.926Z,0.90
2018-09-24T09:29:20.661Z,2.43
2018-09-24T09:31:54.434Z,1.60
2018-09-24T09:34:28.127Z,1.30
2018-09-24T09:37:01.739Z,1.40
2018-09-24T09:39:35.472Z,1.37
2018-09-24T09:42:09.269Z,0.90
2018-09-24T09:44:42.876Z,0.80
2018-09-24T09:47:16.730Z,0.93
2018-09-24T09:49:50.453Z,0.93
2018-09-24T09:52:24.190Z,1.63
2018-09-24T09:55:00.700Z,1.07
2018-09-24T09:57:35.130Z,1.10
2018-09-24T10:00:08.878Z,1.00
2018-09-24T10:02:42.485Z,1.10
2018-09-24T10:05:16.224Z,1.00
2018-09-24T10:07:49.646Z,1.20
2018-09-24T10:10:23.531Z,1.57
2018-09-24T10:12:57.679Z,1.87
2018-09-24T10:15:31.369Z,1.60
2018-09-24T10:18:04.896Z,1.20
2018-09-24T10:20:39.033Z,0.87
2018-09-24T10:23:13.121Z,1.37
2018-09-24T10:25:46.839Z,1.13
2018-09-24T10:28:20.577Z,0.80
2018-09-24T10:30:55.163Z,1.00
2018-09-24T10:33:28.756Z,1.03
2018-09-24T10:36:02.458Z,0.93
2018-09-24T10:38:36.087Z,1.10
2018-09-24T10:41:10.363Z,1.87
2018-09-24T10:43:44.666Z,1.10
2018-09-24T10:46:19.228Z,1.07
2018-09-24T10:48:52.840Z,1.20
2018-09-24T10:51:26.583Z,1.00
2018-09-24T10:54:00.262Z,1.60
2018-09-24T10:56:34.076Z,0.70
2018-09-24T10:59:07.631Z,1.00
2018-09-24T11:01:41.422Z,0.93
2018-09-24T11:04:15.119Z,1.00
2018-09-24T11:06:48.783Z,1.60
2018-09-24T11:09:22.432Z,1.60
2018-09-24T11:11:56.318Z,1.40
2018-09-24T11:14:29.906Z,1.27
2018-09-24T11:17:03.633Z,1.20
2018-09-24T11:19:37.345Z,0.97
2018-09-24T11:22:11.036Z,2.30
2018-09-24T11:24:44.839Z,1.00
2018-09-24T11:27:18.486Z,1.00
2018-09-24T11:29:52.248Z,1.10
2018-09-24T11:32:25.928Z,0.90
2018-09-24T11:34:59.606Z,0.80
2018-09-24T11:37:33.313Z,1.23
2018-09-24T11:40:07.149Z,0.83
2018-09-24T11:42:40.766Z,1.20
2018-09-24T11:45:14.428Z,1.40
2018-09-24T11:47:48.182Z,0.90
2018-09-24T11:50:21.871Z,0.80
2018-09-24T11:52:55.516Z,0.70
2018-09-24T11:55:29.294Z,0.83
2018-09-24T11:58:03.321Z,1.07
2018-09-24T12:00:37.206Z,1.20
2018-09-24T12:03:11.433Z,1.00
2018-09-24T12:05:45.624Z,0.80
2018-09-24T12:08:19.648Z,1.20
2018-09-24T12:10:53.698Z,0.90
2018-09-24T12:13:27.827Z,1.37
2018-09-24T12:16:01.893Z,0.80
2018-09-24T12:18:36.468Z,0.73
2018-09-24T12:28:19.594Z,0.80
2018-09-24T12:30:53.842Z,0.80
2018-09-24T12:33:27.819Z,0.90
2018-09-24T12:36:02.121Z,1.20
2018-09-24T12:38:36.375Z,1.17
2018-09-24T12:41:10.321Z,0.90
2018-09-24T12:43:44.488Z,0.73
2018-09-24T12:46:18.426Z,0.83
2018-09-24T12:48:52.509Z,0.80
2018-09-24T12:51:26.741Z,0.80
2018-09-24T12:54:02.485Z,1.10
2018-09-24T12:56:36.450Z,0.97
2018-09-24T12:59:10.130Z,1.03
2018-09-24T13:01:43.801Z,1.87
2018-09-24T13:04:17.195Z,0.80
2018-09-24T13:06:50.670Z,0.90
2018-09-24T13:09:24.939Z,0.80
2018-09-24T13:12:04.399Z,0.70
2018-09-24T13:14:38.556Z,0.80
2018-09-24T13:17:12.739Z,0.70
2018-09-24T13:19:46.733Z,0.90
2018-09-24T13:22:20.956Z,0.83
2018-09-24T13:24:55.018Z,0.73
2018-09-24T13:27:29.168Z,0.60
2018-09-24T13:30:03.406Z,1.00
2018-09-24T13:32:37.638Z,1.03
2018-09-24T13:35:12.920Z,1.37
2018-09-24T13:37:47.231Z,0.73
2018-09-24T13:40:21.345Z,0.97
2018-09-24T13:42:56.126Z,0.97
2018-09-24T13:45:30.394Z,0.73
2018-09-24T13:48:04.846Z,0.93
2018-09-24T13:50:39.113Z,0.93
2018-09-24T13:53:13.328Z,1.07
2018-09-24T13:55:51.040Z,0.63
2018-09-24T13:58:24.641Z,0.70
2018-09-24T14:00:58.235Z,0.60
2018-09-24T14:03:32.250Z,0.90
2018-09-24T14:06:05.876Z,1.00
2018-09-24T14:08:39.661Z,1.00
2018-09-24T14:11:14.082Z,0.87
2018-09-24T14:13:47.788Z,0.87
2018-09-24T14:16:21.493Z,0.93
2018-09-24T14:18:55.217Z,0.87
2018-09-24T14:21:29.084Z,1.00
2018-09-24T14:24:02.745Z,1.20
2018-09-24T14:26:36.451Z,0.80
2018-09-24T14:29:10.485Z,0.63
2018-09-24T14:31:44.332Z,0.80
2018-09-24T14:34:18.354Z,1.13
2018-09-24T14:36:51.958Z,0.80
2018-09-24T14:39:25.841Z,0.57
2018-09-24T14:41:59.713Z,0.93
2018-09-24T14:44:33.423Z,0.70
2018-09-24T14:47:07.265Z,2.00
2018-09-24T14:49:41.971Z,1.30
2018-09-24T14:52:15.686Z,0.77
2018-09-24T14:54:49.280Z,0.70
2018-09-24T14:57:22.860Z,1.30
2018-09-24T14:59:56.583Z,0.50
2018-09-24T15:02:30.037Z,2.63
2018-09-24T15:05:05.839Z,1.00
2018-09-24T15:07:40.253Z,1.00
2018-09-24T15:10:14.024Z,2.87
2018-09-24T15:12:50.709Z,1.20
2018-09-24T15:15:24.477Z,1.20
2018-09-24T15:17:58.269Z,0.80
2018-09-24T15:20:31.958Z,1.10
2018-09-24T15:23:11.454Z,0.87
2018-09-24T15:25:45.528Z,0.70
2018-09-24T15:28:19.059Z,0.90
2018-09-24T15:30:52.533Z,0.70
2018-09-24T15:33:26.285Z,0.70
2018-09-24T15:35:59.949Z,1.00
2018-09-24T15:38:33.401Z,0.80
2018-09-24T15:41:07.175Z,0.70
2018-09-24T15:43:40.821Z,0.60
2018-09-24T15:46:14.218Z,0.83
2018-09-24T15:48:48.062Z,0.70
2018-09-24T15:51:21.803Z,0.63
2018-09-24T15:53:55.529Z,0.50
2018-09-24T15:56:29.294Z,0.70
2018-09-24T15:59:02.939Z,1.27
2018-09-24T16:01:36.582Z,1.40
2018-09-24T16:04:10.217Z,0.70
2018-09-24T16:06:43.873Z,0.90
2018-09-24T16:09:17.669Z,0.80
2018-09-24T16:11:51.414Z,1.10
2018-09-24T16:14:25.226Z,0.70
2018-09-24T16:16:58.919Z,0.83
2018-09-24T16:19:32.318Z,1.10
2018-09-24T16:22:06.025Z,1.00
2018-09-24T16:24:39.630Z,0.90
2018-09-24T16:27:13.326Z,0.77
2018-09-24T16:29:47.100Z,0.70
2018-09-24T16:32:20.797Z,1.07
2018-09-24T16:34:54.437Z,1.30
2018-09-24T16:37:28.089Z,1.10
2018-09-24T16:40:01.837Z,1.20
2018-09-24T16:42:35.442Z,1.00
2018-09-24T16:45:08.920Z,0.90
2018-09-24T16:47:42.629Z,1.10
2018-09-24T16:50:16.294Z,1.00
2018-09-24T16:52:50.042Z,0.80
2018-09-24T16:55:23.778Z,0.90
2018-09-24T16:57:57.549Z,0.97
2018-09-24T17:00:31.233Z,1.00
2018-09-24T17:03:04.870Z,0.80
2018-09-24T17:05:38.516Z,1.00
2018-09-24T17:08:12.288Z,0.60
2018-09-24T17:10:46.031Z,0.70
2018-09-24T17:13:19.630Z,0.70
2018-09-24T17:15:56.335Z,0.50
2018-09-24T17:18:30.600Z,0.67
2018-09-24T17:21:04.273Z,0.70
2018-09-24T17:23:38.212Z,0.77
2018-09-24T17:26:12.121Z,1.13
2018-09-24T17:28:45.789Z,0.73
2018-09-24T17:31:19.684Z,0.53
2018-09-24T17:33:53.450Z,0.73
2018-09-24T17:36:27.204Z,0.80
2018-09-24T17:39:00.840Z,0.83
2018-09-24T17:41:34.406Z,1.00
2018-09-24T17:44:08.653Z,0.73
2018-09-24T17:46:42.347Z,0.80
2018-09-24T17:49:16.061Z,0.83
2018-09-24T17:51:49.571Z,0.70
2018-09-24T17:54:23.174Z,0.60
2018-09-24T17:56:57.051Z,0.83
2018-09-24T17:59:31.126Z,0.80
2018-09-24T18:02:04.651Z,0.77
2018-09-24T18:04:38.329Z,0.80
2018-09-24T18:07:12.098Z,0.63
2018-09-24T18:09:45.834Z,0.60
2018-09-24T18:12:19.462Z,0.83
2018-09-24T18:14:53.297Z,0.87
2018-09-24T18:17:27.058Z,0.90
2018-09-24T18:20:01.134Z,0.80
2018-09-24T18:22:34.910Z,0.80
2018-09-24T18:25:08.677Z,0.97
2018-09-24T18:27:42.422Z,0.80
2018-09-24T18:30:16.127Z,0.73
2018-09-24T18:32:49.880Z,0.83
2018-09-24T18:35:23.624Z,1.20
2018-09-24T18:37:57.409Z,0.90
2018-09-24T18:40:30.909Z,0.70
2018-09-24T18:43:04.625Z,0.70
2018-09-24T18:45:38.344Z,0.60
2018-09-24T18:48:12.179Z,0.77
2018-09-24T18:50:45.969Z,0.70
2018-09-24T18:53:20.434Z,0.97
2018-09-24T18:55:53.985Z,0.80
2018-09-24T18:58:29.414Z,1.20
2018-09-24T19:01:03.220Z,0.60
2018-09-24T19:03:36.843Z,0.70
2018-09-24T19:06:11.823Z,0.63
2018-09-24T19:08:45.610Z,0.70
2018-09-24T19:11:27.703Z,0.60
2018-09-24T19:13:52.718Z,0.70
2018-09-24T19:16:26.362Z,0.50
2018-09-24T19:19:00.096Z,1.17
2018-09-24T19:21:33.653Z,0.90
2018-09-24T19:24:07.150Z,1.00
2018-09-24T19:26:40.689Z,0.67
2018-09-24T19:29:14.462Z,0.60
2018-09-24T19:31:51.446Z,0.93
2018-09-24T19:34:25.142Z,1.00
2018-09-24T19:36:59.018Z,0.60
2018-09-24T19:39:32.626Z,0.93
2018-09-24T19:42:06.462Z,0.70
2018-09-24T19:44:40.121Z,1.03
2018-09-24T19:47:13.858Z,0.87
2018-09-24T19:49:47.618Z,1.00
2018-09-24T19:52:21.951Z,0.93
2018-09-24T19:54:55.698Z,0.60
2018-09-24T19:57:35.375Z,0.70
2018-09-24T20:00:08.928Z,1.00
2018-09-24T20:02:43.416Z,1.10
2018-09-24T20:05:18.226Z,1.20
2018-09-24T20:07:51.888Z,0.90
2018-09-24T20:10:25.613Z,0.90
2018-09-24T20:12:59.344Z,0.70
2018-09-24T20:15:33.081Z,0.70
2018-09-24T20:18:06.799Z,0.73
2018-09-24T20:20:40.979Z,0.80
2018-09-24T20:23:14.800Z,1.00
2018-09-24T20:25:48.504Z,0.93
2018-09-24T20:28:22.330Z,1.20
2018-09-24T20:30:56.094Z,1.13
2018-09-24T20:33:29.816Z,0.87
2018-09-24T20:36:03.502Z,9.63
2018-09-24T20:38:37.229Z,1.40
2018-09-24T20:41:11.005Z,7.33
2018-09-24T20:43:44.828Z,25.33
2018-09-24T20:46:18.534Z,75.33
2018-09-24T20:48:52.266Z,123.13
2018-09-24T20:51:25.979Z,186.87
2018-09-24T20:53:59.734Z,177.30
2018-09-24T20:56:33.525Z,133.00
2018-09-24T20:59:07.116Z,135.30
2018-09-24T21:01:40.576Z,85.23
2018-09-24T21:04:14.360Z,79.63
2018-09-24T21:06:48.093Z,81.00
2018-09-24T21:09:21.585Z,82.10
2018-09-24T21:11:56.185Z,86.63
2018-09-24T21:14:29.886Z,72.37
2018-09-24T21:17:04.170Z,58.33
2018-09-24T21:19:37.889Z,66.57
2018-09-24T21:22:11.623Z,57.43
2018-09-24T21:24:45.239Z,64.60
2018-09-24T21:27:18.939Z,61.73
2018-09-24T21:29:52.326Z,55.30
2018-09-24T21:32:25.913Z,62.03
2018-09-24T21:34:59.439Z,52.77
2018-09-24T21:37:32.930Z,53.23
2018-09-24T21:40:06.673Z,58.23
2018-09-24T21:42:40.488Z,57.70
2018-09-24T21:45:14.225Z,52.30
2018-09-24T21:47:47.845Z,47.07
2018-09-24T21:50:21.665Z,41.07
2018-09-24T21:52:55.174Z,42.83
2018-09-24T21:55:28.765Z,38.37
2018-09-24T21:58:02.651Z,33.93
2018-09-24T22:00:36.243Z,29.03
2018-09-24T22:03:10.006Z,29.03
2018-09-24T22:05:43.412Z,22.83
2018-09-24T22:08:17.241Z,20.37
2018-09-24T22:10:51.018Z,19.67
2018-09-24T22:13:24.729Z,14.40
2018-09-24T22:15:58.446Z,14.30
2018-09-24T22:18:32.190Z,12.43
2018-09-24T22:21:05.728Z,12.30
2018-09-24T22:23:39.450Z,13.80
2018-09-24T22:26:14.595Z,12.03
2018-09-24T22:28:48.255Z,11.67
2018-09-24T22:31:22.004Z,14.00
2018-09-24T22:33:55.775Z,11.47
2018-09-24T22:36:29.393Z,10.63
2018-09-24T22:39:03.205Z,11.73
2018-09-24T22:41:36.872Z,10.80
2018-09-24T22:44:10.577Z,10.27
2018-09-24T22:46:44.287Z,10.33
2018-09-24T22:49:17.980Z,9.73
2018-09-24T22:51:53.337Z,9.73
2018-09-24T22:54:26.873Z,9.13
2018-09-24T22:57:00.298Z,8.30
2018-09-24T22:59:33.997Z,8.37
2018-09-24T23:02:07.764Z,8.53
2018-09-24T23:04:41.490Z,8.23
2018-09-24T23:07:15.051Z,9.10
2018-09-24T23:09:48.625Z,8.50
2018-09-24T23:12:22.256Z,8.37
2018-09-24T23:14:56.005Z,9.23
2018-09-24T23:17:32.511Z,8.90
2018-09-24T23:20:06.252Z,9.03
2018-09-24T23:22:39.954Z,9.50
2018-09-24T23:25:13.582Z,8.83
2018-09-24T23:27:47.208Z,8.47
2018-09-24T23:30:20.825Z,8.50
2018-09-24T23:32:54.511Z,9.07
2018-09-24T23:35:28.175Z,8.23
2018-09-24T23:38:01.811Z,8.03
2018-09-24T23:40:35.265Z,8.53
2018-09-24T23:43:08.784Z,8.63
2018-09-24T23:45:42.433Z,9.00
2018-09-24T23:48:15.993Z,8.23
2018-09-24T23:50:49.525Z,7.77
2018-09-24T23:53:23.122Z,4.73
2018-09-24T23:55:56.845Z,5.57
2018-09-24T23:58:30.497Z,5.80
